Time;durP1;ratioP1;P1;durP2;ratioP2;P2;SDS_P1;SDS_P2;PMS_P1;PMS_P2;Temp;Humidity;BMP_temperature;BMP_pressure;BME280_temperature;BME280_humidity;BME280_pressure;Samples;Min_cycle;Max_cycle;Signal;HPM_P1;HPM_P2
2022/08/28 00:01:04;;;;;;;12.10;4.00;;;14.60;99.90;;;;;;5026008;28;20044;-76
2022/08/28 00:03:31;;;;;;;8.70;3.70;;;14.50;99.90;;;;;;5031087;28;20048;-77
2022/08/28 00:05:58;;;;;;;10.77;3.85;;;14.50;99.90;;;;;;5025548;28;20064;-77
2022/08/28 00:08:25;;;;;;;9.05;3.63;;;14.50;99.90;;;;;;5022016;28;20092;-77
2022/08/28 00:10:53;;;;;;;9.43;3.40;;;14.30;99.90;;;;;;5028850;28;20046;-76
2022/08/28 00:13:24;;;;;;;7.63;3.75;;;14.40;99.90;;;;;;5034145;28;20034;-76
2022/08/28 00:15:54;;;;;;;7.93;3.55;;;14.50;99.90;;;;;;5031582;28;20049;-77
2022/08/28 00:18:23;;;;;;;9.60;3.83;;;14.40;99.90;;;;;;5024399;28;20038;-77
2022/08/28 00:20:51;;;;;;;7.28;3.70;;;14.60;99.90;;;;;;5031812;28;20037;-77
2022/08/28 00:23:17;;;;;;;10.20;3.95;;;14.40;99.90;;;;;;5010436;28;20120;-77
2022/08/28 00:25:43;;;;;;;8.25;3.65;;;14.40;99.90;;;;;;5024646;28;20056;-77
2022/08/28 00:28:11;;;;;;;7.15;3.38;;;14.30;99.90;;;;;;5013314;28;20060;-77
2022/08/28 00:30:38;;;;;;;6.95;3.17;;;14.40;99.90;;;;;;5034942;28;20102;-77
2022/08/28 00:33:22;;;;;;;7.57;3.70;;;14.40;99.90;;;;;;5042907;28;20041;-77
2022/08/28 00:35:49;;;;;;;8.85;3.20;;;14.30;99.90;;;;;;5037731;28;20464;-77
2022/08/28 00:38:18;;;;;;;9.27;3.95;;;14.30;99.90;;;;;;5029183;28;20054;-77
2022/08/28 00:40:48;;;;;;;6.82;3.65;;;14.40;99.90;;;;;;5039911;28;20061;-77
2022/08/28 00:43:40;;;;;;;9.32;3.72;;;14.60;99.90;;;;;;5040470;28;20037;-77
2022/08/28 00:46:12;;;;;;;10.10;3.85;;;14.30;99.90;;;;;;5029015;28;20045;-77
2022/08/28 00:48:39;;;;;;;9.60;3.60;;;14.20;99.90;;;;;;5030880;28;20045;-77
2022/08/28 00:53:53;;;;;;;7.03;3.05;;;14.20;99.90;;;;;;5048410;28;20067;-77
2022/08/28 00:56:19;;;;;;;9.40;3.90;;;14.20;99.90;;;;;;5028847;28;20063;-77
2022/08/28 00:58:48;;;;;;;8.73;3.72;;;14.20;99.90;;;;;;5040925;28;20053;-77
2022/08/28 01:01:14;;;;;;;8.88;3.50;;;14.40;99.90;;;;;;5035405;28;20043;-77
2022/08/28 01:03:42;;;;;;;6.45;3.08;;;14.20;99.90;;;;;;5022163;28;20065;-77
2022/08/28 01:06:09;;;;;;;8.00;3.63;;;14.10;99.90;;;;;;5034089;28;20112;-77
2022/08/28 01:08:37;;;;;;;8.68;3.30;;;14.10;99.90;;;;;;5023092;28;20138;-77
2022/08/28 01:11:06;;;;;;;8.80;3.47;;;14.10;99.90;;;;;;5016880;28;20037;-77
2022/08/28 01:13:35;;;;;;;7.60;3.50;;;14.00;99.90;;;;;;5030729;28;20049;-77
2022/08/28 01:16:04;;;;;;;8.43;3.40;;;14.00;99.90;;;;;;5031225;28;20060;-77
2022/08/28 01:18:31;;;;;;;9.40;3.25;;;14.00;99.90;;;;;;5024244;28;20478;-77
2022/08/28 01:21:31;;;;;;;12.02;4.10;;;13.90;99.90;;;;;;5010251;28;20053;-77
2022/08/28 01:24:00;;;;;;;8.27;3.28;;;13.90;99.90;;;;;;5030612;28;20033;-77
2022/08/28 01:26:27;;;;;;;6.32;2.97;;;13.90;99.90;;;;;;5030238;28;20037;-77
2022/08/28 01:28:57;;;;;;;8.48;3.28;;;14.10;99.90;;;;;;5027019;28;20052;-77
2022/08/28 01:31:23;;;;;;;7.13;3.15;;;13.90;99.90;;;;;;5047201;28;20509;-77
2022/08/28 01:33:50;;;;;;;8.15;3.15;;;13.80;99.90;;;;;;5030203;28;20116;-77
2022/08/28 01:36:17;;;;;;;7.85;3.35;;;13.80;99.90;;;;;;5046745;28;20048;-77
2022/08/28 01:38:45;;;;;;;7.05;3.05;;;13.70;99.90;;;;;;5029051;28;20049;-77
2022/08/28 01:41:12;;;;;;;7.22;3.13;;;13.80;99.90;;;;;;5040073;28;20029;-77
2022/08/28 01:43:40;;;;;;;8.43;3.15;;;13.70;99.90;;;;;;5045577;28;20045;-77
2022/08/28 01:46:06;;;;;;;7.32;3.38;;;13.80;99.90;;;;;;5030235;28;20041;-77
2022/08/28 01:48:35;;;;;;;9.68;3.03;;;13.70;99.90;;;;;;5040037;28;20048;-77
2022/08/28 01:51:03;;;;;;;7.82;3.28;;;13.60;99.90;;;;;;5020330;28;20253;-77
2022/08/28 01:53:29;;;;;;;7.53;3.30;;;13.70;99.90;;;;;;5044246;28;20048;-77
2022/08/28 01:55:56;;;;;;;5.07;2.92;;;13.50;99.90;;;;;;5046963;28;20119;-77
2022/08/28 01:58:24;;;;;;;8.25;3.75;;;13.60;99.90;;;;;;5028800;28;20045;-77
2022/08/28 02:00:51;;;;;;;5.43;3.00;;;13.50;99.90;;;;;;5047587;28;20030;-76
2022/08/28 02:03:17;;;;;;;8.65;3.85;;;13.50;99.90;;;;;;5023015;28;20120;-76
2022/08/28 02:05:43;;;;;;;9.60;3.60;;;13.50;99.90;;;;;;5033060;28;20520;-77
2022/08/28 02:08:09;;;;;;;9.95;3.55;;;13.50;99.90;;;;;;5040271;28;20033;-77
2022/08/28 02:10:36;;;;;;;7.93;3.63;;;13.40;99.90;;;;;;5045929;28;20500;-77
2022/08/28 02:13:03;;;;;;;7.18;3.25;;;13.40;99.90;;;;;;5029664;28;20527;-77
2022/08/28 02:15:31;;;;;;;8.52;3.42;;;13.40;99.90;;;;;;5028771;28;20058;-77
2022/08/28 02:17:58;;;;;;;7.60;3.40;;;13.30;99.90;;;;;;5050097;28;20482;-77
2022/08/28 02:20:26;;;;;;;6.82;2.95;;;13.30;99.90;;;;;;5034893;28;20049;-77
2022/08/28 02:22:54;;;;;;;7.18;3.05;;;13.30;99.90;;;;;;5035826;28;20034;-77
2022/08/28 02:25:21;;;;;;;5.97;2.63;;;13.30;99.90;;;;;;5034540;28;20432;-77
2022/08/28 02:27:47;;;;;;;6.68;2.88;;;13.30;99.90;;;;;;5025071;28;20041;-77
2022/08/28 02:30:16;;;;;;;8.10;3.33;;;13.70;99.90;;;;;;5056361;28;20052;-77
2022/08/28 02:32:42;;;;;;;9.25;3.60;;;13.40;99.90;;;;;;5036693;28;20037;-77
2022/08/28 02:35:09;;;;;;;7.88;2.90;;;13.20;99.90;;;;;;5033780;28;20087;-78
2022/08/28 02:37:38;;;;;;;8.25;3.35;;;13.20;99.90;;;;;;5037829;28;20131;-77
2022/08/28 02:40:05;;;;;;;7.22;3.40;;;13.20;99.90;;;;;;5035472;28;20064;-77
2022/08/28 02:42:31;;;;;;;7.35;3.28;;;13.10;99.90;;;;;;5037642;28;20123;-77
2022/08/28 02:44:58;;;;;;;6.80;2.80;;;13.10;99.90;;;;;;5034226;28;20041;-77
2022/08/28 02:47:24;;;;;;;6.03;2.83;;;13.10;99.90;;;;;;5034642;28;20504;-77
2022/08/28 02:49:50;;;;;;;6.10;3.05;;;13.10;99.90;;;;;;5020054;28;20037;-77
2022/08/28 02:52:21;;;;;;;7.55;2.75;;;13.30;99.90;;;;;;5027527;28;20044;-77
2022/08/28 02:54:46;;;;;;;5.88;2.60;;;13.00;99.90;;;;;;5053731;28;20108;-76
2022/08/28 02:57:13;;;;;;;6.80;2.60;;;13.00;99.90;;;;;;5045405;28;20143;-77
2022/08/28 02:59:39;;;;;;;4.45;2.88;;;13.00;99.90;;;;;;5031448;28;20040;-77
2022/08/28 03:02:07;;;;;;;4.88;2.28;;;12.90;99.90;;;;;;5042213;28;20493;-77
2022/08/28 03:04:36;;;;;;;5.90;2.50;;;12.90;99.90;;;;;;5033556;28;20305;-77
2022/08/28 03:07:03;;;;;;;6.30;3.10;;;12.90;99.90;;;;;;5034163;28;20087;-77
2022/08/28 03:09:29;;;;;;;5.38;2.72;;;12.80;99.90;;;;;;5032631;28;20108;-77
2022/08/28 03:11:56;;;;;;;5.43;2.78;;;12.80;99.90;;;;;;5051244;28;20570;-76
2022/08/28 03:14:23;;;;;;;6.50;3.03;;;12.80;99.90;;;;;;5034397;28;20052;-76
2022/08/28 03:16:49;;;;;;;7.63;3.20;;;12.90;99.90;;;;;;5033729;28;20543;-76
2022/08/28 03:19:14;;;;;;;5.22;3.13;;;12.80;99.90;;;;;;5042949;28;20041;-76
2022/08/28 03:21:40;;;;;;;7.50;3.30;;;12.80;99.90;;;;;;5036566;28;20055;-76
2022/08/28 03:24:06;;;;;;;9.65;3.33;;;13.00;99.90;;;;;;5034616;28;20042;-76
2022/08/28 03:26:32;;;;;;;7.95;3.67;;;12.70;99.90;;;;;;5033179;28;20072;-77
2022/08/28 03:28:58;;;;;;;8.30;3.47;;;12.80;99.90;;;;;;5049594;28;20102;-77
2022/08/28 03:31:27;;;;;;;8.90;3.75;;;12.70;99.90;;;;;;5042285;28;20432;-76
2022/08/28 03:33:53;;;;;;;6.00;3.25;;;12.70;99.90;;;;;;5045881;28;20042;-76
2022/08/28 03:36:24;;;;;;;5.57;3.08;;;12.80;99.90;;;;;;5050509;28;20512;-77
2022/08/28 03:38:52;;;;;;;5.95;3.33;;;12.80;99.90;;;;;;5018386;28;20516;-77
2022/08/28 03:41:24;;;;;;;6.78;2.85;;;12.70;99.90;;;;;;5032837;28;20236;-77
2022/08/28 03:43:51;;;;;;;5.50;3.20;;;12.60;99.90;;;;;;5041961;28;20397;-77
2022/08/28 03:46:19;;;;;;;8.65;2.70;;;12.60;99.90;;;;;;5014981;28;20102;-77
2022/08/28 03:48:45;;;;;;;4.32;2.67;;;12.60;99.90;;;;;;5030132;28;20041;-77
2022/08/28 03:51:15;;;;;;;4.95;2.60;;;12.60;99.90;;;;;;5049389;28;20084;-76
2022/08/28 03:53:41;;;;;;;6.97;2.72;;;12.70;99.90;;;;;;5039058;28;20046;-77
2022/08/28 03:56:17;;;;;;;6.03;2.38;;;12.50;99.90;;;;;;5049238;28;20033;-77
2022/08/28 03:58:43;;;;;;;7.68;3.20;;;12.50;99.90;;;;;;5037227;28;22084;-75
2022/08/28 04:01:09;;;;;;;8.40;3.08;;;12.40;99.90;;;;;;5052099;28;20041;-76
2022/08/28 04:03:36;;;;;;;7.30;2.80;;;12.40;99.90;;;;;;5032501;28;20408;-76
2022/08/28 04:06:01;;;;;;;5.55;2.85;;;12.70;99.90;;;;;;5036318;28;20046;-76
2022/08/28 04:08:28;;;;;;;4.43;2.53;;;12.40;99.90;;;;;;5030493;28;20060;-76
2022/08/28 04:10:54;;;;;;;5.22;2.72;;;12.30;99.90;;;;;;5037850;28;20045;-77
2022/08/28 04:13:21;;;;;;;4.78;2.20;;;12.30;99.90;;;;;;5010201;28;20241;-77
2022/08/28 04:15:59;;;;;;;4.53;2.20;;;12.30;99.90;;;;;;5023675;28;20116;-77
2022/08/28 04:18:27;;;;;;;3.67;2.38;;;12.30;99.90;;;;;;5031462;28;20038;-77
2022/08/28 04:21:01;;;;;;;6.32;2.67;;;12.30;99.90;;;;;;5023300;28;20072;-77
2022/08/28 04:23:27;;;;;;;4.18;2.30;;;12.20;99.90;;;;;;5030602;28;20494;-77
2022/08/28 04:25:56;;;;;;;4.07;2.38;;;12.20;99.90;;;;;;5014448;28;20045;-77
2022/08/28 04:28:24;;;;;;;4.90;2.80;;;12.20;99.90;;;;;;5009673;28;20450;-76
2022/08/28 04:30:55;;;;;;;3.72;2.38;;;12.20;99.90;;;;;;5025373;28;20045;-76
2022/08/28 04:33:23;;;;;;;5.97;2.93;;;12.10;99.90;;;;;;5015397;28;20033;-76
2022/08/28 04:35:49;;;;;;;6.38;2.60;;;12.10;99.90;;;;;;5056008;28;20029;-76
2022/08/28 04:38:16;;;;;;;6.18;2.60;;;12.10;99.90;;;;;;5047926;28;20541;-76
2022/08/28 04:40:42;;;;;;;7.25;2.72;;;12.10;99.90;;;;;;5027207;28;20041;-76
2022/08/28 04:43:08;;;;;;;6.40;2.47;;;12.10;99.90;;;;;;5006503;28;20038;-76
2022/08/28 04:45:43;;;;;;;6.05;2.72;;;12.10;99.90;;;;;;5031346;28;20517;-77
2022/08/28 04:48:11;;;;;;;5.47;2.60;;;12.10;99.90;;;;;;5026079;28;20048;-77
2022/08/28 04:50:41;;;;;;;5.20;2.97;;;12.10;99.90;;;;;;5045608;28;20428;-77
2022/08/28 04:53:08;;;;;;;5.07;2.80;;;12.10;99.90;;;;;;5020805;28;20073;-77
2022/08/28 04:55:33;;;;;;;4.95;2.80;;;12.10;99.90;;;;;;5047244;28;20041;-77
2022/08/28 04:57:59;;;;;;;5.68;2.80;;;12.10;99.90;;;;;;5029273;28;20033;-77
2022/08/28 05:00:26;;;;;;;7.13;2.92;;;12.10;99.90;;;;;;5029894;28;20045;-77
2022/08/28 05:02:53;;;;;;;5.15;2.65;;;12.20;99.90;;;;;;5013103;28;20107;-77
2022/08/28 05:05:19;;;;;;;8.10;3.20;;;12.30;99.90;;;;;;5023235;28;20077;-77
2022/08/28 05:07:45;;;;;;;6.40;2.92;;;12.30;99.90;;;;;;5026238;28;20088;-77
2022/08/28 05:10:10;;;;;;;6.13;2.90;;;12.30;99.90;;;;;;5030801;28;20038;-77
2022/08/28 05:12:36;;;;;;;6.88;2.97;;;12.30;99.90;;;;;;5022824;28;20042;-77
2022/08/28 05:15:02;;;;;;;5.45;2.80;;;12.30;99.90;;;;;;5044340;28;20041;-76
2022/08/28 05:17:28;;;;;;;7.18;2.92;;;12.30;99.90;;;;;;5029618;28;20044;-76
2022/08/28 05:19:54;;;;;;;5.88;2.60;;;12.30;99.90;;;;;;5031290;28;20037;-77
2022/08/28 05:22:19;;;;;;;7.28;3.08;;;12.20;99.90;;;;;;5023322;28;20038;-77
2022/08/28 05:24:46;;;;;;;6.22;3.10;;;12.20;99.90;;;;;;5025139;28;20498;-77
2022/08/28 05:27:11;;;;;;;6.40;2.70;;;12.20;99.90;;;;;;5028680;28;20037;-77
2022/08/28 05:29:38;;;;;;;6.65;2.85;;;12.20;99.90;;;;;;5030166;28;20037;-77
2022/08/28 05:32:04;;;;;;;6.57;3.15;;;12.30;99.90;;;;;;5028437;28;20500;-77
2022/08/28 05:34:30;;;;;;;5.15;2.95;;;12.20;99.90;;;;;;5030001;28;20382;-77
2022/08/28 05:36:56;;;;;;;5.05;2.78;;;12.40;99.90;;;;;;5047284;28;20037;-77
2022/08/28 05:39:22;;;;;;;8.85;3.38;;;12.30;99.90;;;;;;5045973;28;20049;-76
2022/08/28 05:41:48;;;;;;;7.00;3.13;;;12.30;99.90;;;;;;5032667;28;20130;-77
2022/08/28 05:44:16;;;;;;;9.07;3.00;;;12.30;99.90;;;;;;5025861;28;20091;-77
2022/08/28 05:46:43;;;;;;;5.20;2.88;;;12.40;99.90;;;;;;5041611;28;20041;-77
2022/08/28 05:49:09;;;;;;;6.63;3.00;;;12.40;99.90;;;;;;5013370;28;20117;-77
2022/08/28 05:51:35;;;;;;;7.93;2.90;;;12.70;99.90;;;;;;5029689;28;20155;-76
2022/08/28 05:54:02;;;;;;;8.75;3.22;;;12.50;99.90;;;;;;5013256;28;20044;-77
2022/08/28 05:56:34;;;;;;;6.72;3.00;;;12.50;99.90;;;;;;5026365;28;20038;-78
2022/08/28 05:59:00;;;;;;;;;;;12.60;99.90;;;;;;5041467;28;20506;-77
2022/08/28 06:01:28;;;;;;;6.25;3.20;;;12.60;99.90;;;;;;5021770;28;20389;-77
2022/08/28 06:03:58;;;;;;;6.95;2.67;;;12.60;99.90;;;;;;5038206;28;20041;-77
2022/08/28 06:06:26;;;;;;;7.35;3.03;;;12.80;99.90;;;;;;5031810;28;20648;-77
2022/08/28 06:08:58;;;;;;;10.07;3.17;;;12.80;99.90;;;;;;5057983;28;20150;-77
2022/08/28 06:11:26;;;;;;;5.53;2.83;;;12.80;99.90;;;;;;5023162;28;20037;-77
2022/08/28 06:13:51;;;;;;;6.40;3.00;;;12.80;99.90;;;;;;5031586;28;20486;-77
2022/08/28 06:16:18;;;;;;;8.88;3.10;;;13.10;99.90;;;;;;5019657;28;20084;-77
2022/08/28 06:18:45;;;;;;;7.03;3.13;;;13.00;99.90;;;;;;5041203;28;20057;-77
2022/08/28 06:21:12;;;;;;;9.25;3.05;;;13.30;99.90;;;;;;5031705;28;20042;-77
2022/08/28 06:23:38;;;;;;;7.97;2.95;;;13.10;99.90;;;;;;5025649;28;20119;-77
2022/08/28 06:26:05;;;;;;;11.02;3.22;;;13.20;99.90;;;;;;5029682;28;20037;-76
2022/08/28 06:28:31;;;;;;;8.32;3.15;;;13.20;99.90;;;;;;5045666;28;20049;-77
2022/08/28 06:31:04;;;;;;;7.15;3.20;;;13.40;99.90;;;;;;5045256;28;20509;-77
2022/08/28 06:33:31;;;;;;;8.35;3.08;;;13.40;99.90;;;;;;5041933;28;20119;-77
2022/08/28 06:36:01;;;;;;;6.10;2.80;;;13.40;99.90;;;;;;5024943;28;20080;-77
2022/08/28 06:38:27;;;;;;;6.22;2.70;;;13.50;99.90;;;;;;5025420;28;20065;-77
2022/08/28 06:40:55;;;;;;;5.80;2.80;;;13.50;99.90;;;;;;5030296;28;20481;-77
2022/08/28 06:43:26;;;;;;;5.13;2.50;;;13.60;99.90;;;;;;5029586;28;20051;-77
2022/08/28 06:45:55;;;;;;;8.30;2.50;;;13.60;99.90;;;;;;5027720;28;20053;-77
2022/08/28 06:48:26;;;;;;;6.65;2.80;;;13.70;99.90;;;;;;5006462;28;20041;-77
2022/08/28 06:50:53;;;;;;;8.63;2.53;;;13.70;99.90;;;;;;5028289;28;20124;-76
2022/08/28 06:53:22;;;;;;;9.27;2.50;;;13.80;99.90;;;;;;5022924;28;20037;-77
2022/08/28 06:55:59;;;;;;;7.15;2.40;;;14.10;99.90;;;;;;5028004;28;20041;-77
2022/08/28 06:58:27;;;;;;;10.77;2.65;;;13.90;99.90;;;;;;5030466;28;20047;-77
2022/08/28 07:01:01;;;;;;;9.65;2.38;;;14.00;99.90;;;;;;5045822;28;20440;-77
2022/08/28 07:03:29;;;;;;;7.45;2.50;;;14.10;99.90;;;;;;5041028;28;20038;-77
2022/08/28 07:06:00;;;;;;;6.78;2.58;;;14.10;99.90;;;;;;5030142;28;20088;-77
2022/08/28 07:08:27;;;;;;;11.40;2.38;;;14.20;99.90;;;;;;5015697;28;20041;-77
2022/08/28 07:10:53;;;;;;;8.02;2.50;;;14.50;99.90;;;;;;5039076;28;20037;-77
2022/08/28 07:13:20;;;;;;;8.48;2.15;;;14.20;99.90;;;;;;5029015;28;20401;-77
2022/08/28 07:15:48;;;;;;;6.00;2.20;;;14.30;99.90;;;;;;5016412;28;20091;-77
2022/08/28 07:18:14;;;;;;;8.77;2.22;;;14.30;99.90;;;;;;5016497;28;20452;-77
2022/08/28 07:20:39;;;;;;;6.70;2.17;;;14.70;99.90;;;;;;5035610;28;20535;-77
2022/08/28 07:23:06;;;;;;;6.88;2.20;;;14.50;99.90;;;;;;5043930;28;20038;-78
2022/08/28 07:25:37;;;;;;;6.82;1.98;;;14.50;99.90;;;;;;5030089;28;20045;-78
2022/08/28 07:28:03;;;;;;;6.38;2.17;;;14.50;99.90;;;;;;5026364;28;20059;-77
2022/08/28 07:30:29;;;;;;;10.55;2.20;;;14.50;99.90;;;;;;5031681;28;20120;-77
2022/08/28 07:32:54;;;;;;;9.00;2.30;;;14.50;99.90;;;;;;5033665;28;20083;-77
2022/08/28 07:35:20;;;;;;;9.73;2.38;;;14.60;99.90;;;;;;5032214;28;20054;-79
2022/08/28 07:37:46;;;;;;;6.28;2.03;;;14.70;99.90;;;;;;5025936;28;20474;-77
2022/08/28 07:40:12;;;;;;;7.32;2.08;;;14.70;99.90;;;;;;5032676;28;20128;-77
2022/08/28 07:45:24;;;;;;;8.02;2.08;;;14.80;99.90;;;;;;5046246;28;20046;-73
2022/08/28 07:47:50;;;;;;;5.53;1.65;;;14.90;99.90;;;;;;5045184;28;20052;-77
2022/08/28 07:50:16;;;;;;;5.75;1.95;;;15.00;99.90;;;;;;5029841;28;20045;-77
2022/08/28 07:52:45;;;;;;;8.13;1.95;;;15.00;99.90;;;;;;5031362;28;20049;-77
2022/08/28 07:55:10;;;;;;;5.35;1.90;;;15.10;99.90;;;;;;5040722;28;20026;-76
2022/08/28 07:57:37;;;;;;;5.70;1.90;;;15.20;99.90;;;;;;5051062;28;20047;-76
2022/08/28 08:00:04;;;;;;;6.95;1.88;;;15.20;99.90;;;;;;5026706;28;20037;-78
2022/08/28 08:02:31;;;;;;;4.68;1.80;;;15.30;99.90;;;;;;5015552;28;20457;-78
2022/08/28 08:04:57;;;;;;;5.43;1.77;;;15.40;99.90;;;;;;5047150;28;20220;-78
2022/08/28 08:07:23;;;;;;;9.35;2.00;;;15.50;99.90;;;;;;5014220;28;20068;-77
2022/08/28 08:09:48;;;;;;;6.35;1.95;;;15.80;99.90;;;;;;5032452;28;20033;-77
2022/08/28 08:12:15;;;;;;;5.93;1.80;;;15.50;99.90;;;;;;5038957;28;20033;-77
2022/08/28 08:14:42;;;;;;;7.22;1.88;;;15.60;99.90;;;;;;5007701;28;20049;-77
2022/08/28 08:17:09;;;;;;;6.53;1.70;;;15.70;99.90;;;;;;5034332;28;20099;-77
2022/08/28 08:19:36;;;;;;;5.85;1.60;;;15.80;99.90;;;;;;5041039;28;20508;-77
2022/08/28 08:22:01;;;;;;;5.30;1.60;;;15.90;99.90;;;;;;5027463;28;20034;-77
2022/08/28 08:24:29;;;;;;;4.28;1.60;;;15.90;99.90;;;;;;5022883;28;20045;-77
2022/08/28 08:27:00;;;;;;;5.30;1.92;;;16.00;99.90;;;;;;5016042;28;20037;-77
2022/08/28 08:29:30;;;;;;;5.53;1.75;;;16.10;99.90;;;;;;5026795;28;20183;-78
2022/08/28 08:32:04;;;;;;;6.05;1.70;;;16.20;99.90;;;;;;5029146;28;20044;-78
2022/08/28 08:34:32;;;;;;;5.88;1.60;;;16.30;99.90;;;;;;5027006;28;20045;-78
2022/08/28 08:36:57;;;;;;;4.97;1.88;;;16.40;99.90;;;;;;5039602;28;20029;-78
2022/08/28 08:39:23;;;;;;;4.82;2.05;;;16.50;99.90;;;;;;5037683;28;20040;-78
2022/08/28 08:41:54;;;;;;;5.55;1.83;;;16.70;99.90;;;;;;5024627;28;20453;-78
2022/08/28 08:44:31;;;;;;;5.45;1.65;;;17.00;99.90;;;;;;5034415;28;20041;-77
2022/08/28 08:47:04;;;;;;;4.22;1.67;;;17.00;99.90;;;;;;5037163;28;20032;-78
2022/08/28 08:49:37;;;;;;;3.92;1.63;;;17.10;99.90;;;;;;5011998;28;20046;-77
2022/08/28 08:52:22;;;;;;;4.18;1.60;;;17.30;99.90;;;;;;5035204;28;20099;-78
2022/08/28 08:55:04;;;;;;;5.20;1.60;;;17.40;99.90;;;;;;5016288;28;20405;-78
2022/08/28 08:57:32;;;;;;;6.10;1.90;;;17.50;99.90;;;;;;5032186;28;20038;-77
2022/08/28 09:00:02;;;;;;;4.60;1.48;;;17.60;99.90;;;;;;5029849;28;20042;-78
2022/08/28 09:02:33;;;;;;;5.03;1.75;;;17.60;99.90;;;;;;5025633;28;20057;-78
2022/08/28 09:05:08;;;;;;;5.65;1.90;;;17.70;99.90;;;;;;5023523;28;20038;-78
2022/08/28 09:07:57;;;;;;;5.85;1.95;;;17.90;99.90;;;;;;5030546;28;20052;-77
2022/08/28 09:10:33;;;;;;;6.65;1.80;;;18.00;99.90;;;;;;5014075;28;20045;-78
2022/08/28 09:13:13;;;;;;;7.75;2.13;;;18.10;99.90;;;;;;5032146;28;20519;-77
2022/08/28 09:15:43;;;;;;;7.40;1.85;;;18.10;99.90;;;;;;5036015;28;20305;-77
2022/08/28 09:18:18;;;;;;;6.22;1.67;;;18.20;99.90;;;;;;5033240;28;20045;-78
2022/08/28 09:20:49;;;;;;;6.57;1.70;;;18.30;99.90;;;;;;5049678;28;20041;-77
2022/08/28 09:23:14;;;;;;;4.53;1.90;;;18.50;99.90;;;;;;5033024;28;20042;-77
2022/08/28 09:25:43;;;;;;;4.65;1.80;;;18.90;99.90;;;;;;5037151;28;20048;-77
2022/08/28 09:28:12;;;;;;;7.03;1.75;;;19.10;99.90;;;;;;5035858;28;20053;-78
2022/08/28 09:30:40;;;;;;;3.63;1.90;;;19.40;99.90;;;;;;5029128;28;20037;-78
2022/08/28 09:33:06;;;;;;;3.45;1.48;;;19.60;99.90;;;;;;5032323;28;20041;-78
2022/08/28 09:35:36;;;;;;;6.40;1.85;;;19.90;99.90;;;;;;5021457;28;20049;-79
2022/08/28 09:38:22;;;;;;;6.88;1.60;;;20.00;99.70;;;;;;5024064;28;20049;-79
2022/08/28 09:43:36;;;;;;;5.15;1.65;;;20.40;98.80;;;;;;5046037;28;20143;-77
2022/08/28 09:46:01;;;;;;;3.53;1.50;;;20.70;97.40;;;;;;5026277;28;20098;-76
2022/08/28 09:48:39;;;;;;;6.43;1.70;;;20.50;96.40;;;;;;5029459;28;20049;-76
2022/08/28 09:51:05;;;;;;;2.70;1.75;;;20.30;95.70;;;;;;5026078;28;20513;-76
2022/08/28 09:53:40;;;;;;;7.28;1.92;;;20.10;96.10;;;;;;5026798;28;20056;-75
2022/08/28 09:56:27;;;;;;;5.63;1.70;;;19.90;96.10;;;;;;5031473;28;20562;-76
2022/08/28 09:58:58;;;;;;;4.90;2.03;;;19.90;96.50;;;;;;5025254;28;20045;-75
2022/08/28 10:01:49;;;;;;;6.30;1.98;;;20.10;97.10;;;;;;5030094;28;20087;-75
2022/08/28 10:04:37;;;;;;;4.47;1.63;;;20.30;96.50;;;;;;5023634;28;20090;-76
2022/08/28 10:07:24;;;;;;;5.35;1.67;;;20.70;95.90;;;;;;5015575;28;20410;-75
2022/08/28 10:10:27;;;;;;;6.30;2.20;;;20.90;96.90;;;;;;5030015;28;20405;-75
2022/08/28 10:13:09;;;;;;;6.03;1.83;;;21.20;95.70;;;;;;5028044;28;20520;-74
2022/08/28 10:15:56;;;;;;;;;;;21.60;96.20;;;;;;5012368;28;20053;-74
2022/08/28 10:18:34;;;;;;;4.57;1.92;;;21.70;92.60;;;;;;5029419;28;20389;-74
2022/08/28 10:21:16;;;;;;;4.20;1.80;;;21.50;92.40;;;;;;5030350;28;20065;-75
2022/08/28 10:23:47;;;;;;;4.20;1.90;;;21.40;93.00;;;;;;5023524;28;20111;-74
2022/08/28 10:26:50;;;;;;;4.75;1.63;;;21.60;93.00;;;;;;5019385;28;20041;-76
2022/08/28 10:29:57;;;;;;;5.47;1.98;;;21.70;91.90;;;;;;5031988;28;20124;-74
2022/08/28 10:32:32;;;;;;;6.45;2.05;;;21.90;91.50;;;;;;5026963;28;20481;-78
2022/08/28 10:35:12;;;;;;;10.38;1.90;;;22.10;92.00;;;;;;5035182;28;20040;-77
2022/08/28 10:37:38;;;;;;;4.70;2.08;;;22.00;91.80;;;;;;5030584;28;20041;-75
2022/08/28 10:40:13;;;;;;;5.93;1.90;;;21.90;91.40;;;;;;5033600;28;20048;-76
2022/08/28 10:42:45;;;;;;;4.82;1.80;;;21.80;91.20;;;;;;5032527;28;20037;-75
2022/08/28 10:45:24;;;;;;;6.15;1.90;;;21.70;90.90;;;;;;5035140;28;20040;-79
2022/08/28 10:48:16;;;;;;;4.57;1.90;;;21.60;91.00;;;;;;5049156;28;20047;-76
2022/08/28 10:50:46;;;;;;;4.57;1.90;;;21.60;90.80;;;;;;5037614;28;20044;-77
2022/08/28 10:53:30;;;;;;;5.70;2.38;;;21.60;91.00;;;;;;5029201;28;20052;-79
2022/08/28 10:56:01;;;;;;;6.07;2.15;;;21.60;90.80;;;;;;5024227;28;20421;-78
2022/08/28 10:58:29;;;;;;;4.37;1.60;;;21.70;90.90;;;;;;5033041;28;20037;-79
2022/08/28 11:00:59;;;;;;;6.13;1.95;;;21.80;90.40;;;;;;5033256;28;20055;-77
2022/08/28 11:03:28;;;;;;;4.55;1.90;;;22.10;90.60;;;;;;5035593;28;20111;-78
2022/08/28 11:06:14;;;;;;;5.30;2.03;;;22.40;90.60;;;;;;5049228;28;20073;-78
2022/08/28 11:08:40;;;;;;;4.57;1.77;;;22.60;88.40;;;;;;5037120;28;20091;-80
2022/08/28 11:11:13;;;;;;;5.68;2.00;;;22.50;88.00;;;;;;5035726;28;20038;-80
2022/08/28 11:13:58;;;;;;;7.43;2.13;;;22.30;86.60;;;;;;5048927;28;20049;-85
2022/08/28 11:16:40;;;;;;;3.70;1.90;;;21.90;87.20;;;;;;5055644;28;20056;-76
2022/08/28 11:19:37;;;;;;;;;;;21.80;87.90;;;;;;5048660;28;20033;-84
2022/08/28 11:22:23;;;;;;;6.93;2.10;;;21.70;87.30;;;;;;5035865;28;19917;-83
2022/08/28 11:25:34;;;;;;;8.02;2.20;;;22.20;89.90;;;;;;5048174;28;20092;-85
2022/08/28 11:28:38;;;;;;;7.07;1.70;;;22.40;88.50;;;;;;5053960;28;20032;-84
2022/08/28 11:31:04;;;;;;;5.85;2.00;;;22.50;86.50;;;;;;5042560;28;20033;-85
2022/08/28 11:33:51;;;;;;;3.30;1.73;;;22.80;87.80;;;;;;5062336;28;20042;-87
2022/08/28 11:37:19;;;;;;;7.97;2.17;;;22.90;83.50;;;;;;5057127;28;20048;-85
2022/08/28 11:40:30;;;;;;;4.38;1.92;;;22.60;81.40;;;;;;5049205;28;20048;-84
2022/08/28 11:43:43;;;;;;;4.87;1.97;;;22.20;83.30;;;;;;5056662;28;20045;-83
2022/08/28 11:46:38;;;;;;;4.22;2.22;;;22.00;84.90;;;;;;5011539;28;20133;-85
2022/08/28 11:49:35;;;;;;;5.00;1.85;;;22.20;86.10;;;;;;5022578;28;20036;-83
2022/08/28 11:52:22;;;;;;;6.40;2.10;;;22.50;84.20;;;;;;5049555;28;20079;-84
2022/08/28 11:55:10;;;;;;;3.83;2.00;;;22.60;82.20;;;;;;5025214;28;20517;-85
2022/08/28 11:58:40;;;;;;;3.90;1.77;;;22.50;82.70;;;;;;5035958;28;20171;-79
2022/08/28 12:01:10;;;;;;;3.08;1.70;;;22.30;80.00;;;;;;5028632;28;20109;-80
2022/08/28 12:03:58;;;;;;;7.15;1.80;;;22.30;81.80;;;;;;5044345;28;20045;-80
2022/08/28 12:06:43;;;;;;;4.82;1.85;;;22.50;79.80;;;;;;5019384;28;20034;-80
2022/08/28 12:09:32;;;;;;;5.47;1.70;;;22.80;79.40;;;;;;5031787;28;20127;-79
2022/08/28 12:12:32;;;;;;;5.97;1.80;;;23.20;80.40;;;;;;5034561;28;20045;-79
2022/08/28 12:15:01;;;;;;;4.30;1.75;;;23.60;79.70;;;;;;5022754;28;20559;-80
2022/08/28 12:17:44;;;;;;;4.88;2.00;;;23.80;78.00;;;;;;5042948;28;20048;-79
2022/08/28 12:20:19;;;;;;;6.47;1.90;;;23.60;74.20;;;;;;5052892;28;20033;-79
2022/08/28 12:22:54;;;;;;;4.43;1.73;;;23.50;75.50;;;;;;5038681;28;20045;-79
2022/08/28 12:25:56;;;;;;;3.47;1.85;;;23.50;75.80;;;;;;5053025;28;20402;-79
2022/08/28 12:28:27;;;;;;;3.90;1.77;;;23.50;75.80;;;;;;4983026;28;20060;-79
2022/08/28 12:31:06;;;;;;;3.42;2.00;;;23.30;74.40;;;;;;5019058;28;20084;-79
2022/08/28 12:33:36;;;;;;;4.68;2.05;;;23.00;73.60;;;;;;5028094;28;20449;-79
2022/08/28 12:36:04;;;;;;;4.32;1.73;;;22.80;74.50;;;;;;5034470;28;20041;-79
2022/08/28 12:38:32;;;;;;;3.28;1.98;;;22.60;75.40;;;;;;5037131;28;20044;-79
2022/08/28 12:41:00;;;;;;;4.50;1.60;;;22.40;76.10;;;;;;5028546;28;20041;-79
2022/08/28 12:43:31;;;;;;;3.42;2.10;;;22.40;76.50;;;;;;5034550;28;20037;-79
2022/08/28 12:46:18;;;;;;;3.27;1.90;;;22.60;77.00;;;;;;5049800;28;20046;-79
2022/08/28 12:48:57;;;;;;;4.00;1.80;;;22.80;76.20;;;;;;5024392;28;20475;-80
2022/08/28 12:51:31;;;;;;;3.97;1.80;;;22.80;75.50;;;;;;5026557;28;20041;-79
2022/08/28 12:54:04;;;;;;;3.50;1.70;;;22.60;75.60;;;;;;5035415;28;20041;-79
2022/08/28 12:56:36;;;;;;;5.53;2.05;;;22.50;76.00;;;;;;5021430;28;20038;-79
2022/08/28 12:59:35;;;;;;;6.15;2.20;;;22.50;76.70;;;;;;5050947;28;20046;-79
2022/08/28 13:02:05;;;;;;;3.78;1.80;;;22.70;76.90;;;;;;5048808;28;20044;-79
2022/08/28 13:04:58;;;;;;;5.57;1.90;;;22.80;76.50;;;;;;5035792;28;20080;-80
2022/08/28 13:07:30;;;;;;;4.97;2.00;;;22.80;75.00;;;;;;5036913;28;20087;-78
2022/08/28 13:10:02;;;;;;;4.75;1.90;;;22.70;75.50;;;;;;5035980;28;20049;-80
2022/08/28 13:12:38;;;;;;;6.43;1.83;;;22.70;75.90;;;;;;5033193;28;20073;-79
2022/08/28 13:15:05;;;;;;;3.33;2.00;;;22.40;76.30;;;;;;5038605;28;20065;-80
2022/08/28 13:17:58;;;;;;;4.13;2.17;;;22.40;77.10;;;;;;5040424;28;20505;-79
2022/08/28 13:20:29;;;;;;;4.03;1.92;;;22.60;76.20;;;;;;5037714;28;20140;-79